Moose Jaw Air Vice Marshal C. M. McEwen Airport
CYMJ : now visible

Airfield :











YOU CAN JOIN US ON...

 
LOGIN :

Register | Disclaimer

   EN    FR    IT 

 









Legend :    VFR   Marginal VFR   IFR   Intensive IFR   Very Intensive IFR
Visi :
Ceiling :
>= 8 km
>= 3000ft
5 to 8 km
1000 to 3000 ft
1500m to 5 km
500 to 1000 ft
800 to 1500m
200 to 500 ft
< 800m
< 200 ft
Symbols :   Thunderstorms  Fog  Heavy snow  Heavy precipitations  Wind > 20 kt






- Airport Elevation : 1892 ft
- IATA code : YMJ


CYMJ - Moose Jaw Air Vice Marshal C. M. McEwen

CURRENT METAR :
  • 021300Z 29011KT 12SM DRSN FEW003 SCT160 M23/M26 A2993 RMK SF2AC2 SLP192

EXPIRED METARs :
  • 021200Z 29014KT 12SM DRSN FEW003 SCT150 M23/M26 A2991 RMK SF2AC2 SLP186
  • 021100Z 30015KT 10SM DRSN SCT003 BKN130 M22/M25 A2988 RMK SF3AC4 SLP175

TAF TAF CYMJ
Valid from the 02 at 12:00 until the 03 at 00:00 UTC


021144Z 0212/0224 31015G25KT P6SM -SN SCT005 OVC050
TEMPO 0212/0215 2SM -SN BLSN BKN005 OVC050
FM021500 29017KT P6SM -SN OVC025
TEMPO 0215/0224 4SM -SN OVC015 RMK NXT FCST BY 021800Z
CZWG FIR / North America



MET'MAP, your aeronautical weather chart ! - Copyright ORBIFLY December 2007 - Disclaimer

ORBIFLY MET'MAP TEAM :

Programming & Development : Alexandra Zaïnal
Original concept : Baudouin d'Aumeries
Technical & hardware support : Manuel Goepfert
Assistance : Marc-Olivier Méhu




SOURCES & CREDITS :

   NOAA       Earth
Advisory